createdAt,value
2018-06-09T00:00:21.691Z,99304.71
2018-06-09T00:00:52.927Z,99299.25
2018-06-09T00:01:24.155Z,99295.00
2018-06-09T00:01:55.364Z,99301.64
2018-06-09T00:02:26.530Z,99297.19
2018-06-09T00:02:57.704Z,99292.47
2018-06-09T00:03:28.877Z,99293.69
2018-06-09T00:04:00.104Z,99292.12
2018-06-09T00:04:31.268Z,99297.44
2018-06-09T00:05:02.495Z,99289.46
2018-06-09T00:05:33.685Z,99286.80
2018-06-09T00:06:04.914Z,99296.70
2018-06-09T00:06:36.097Z,99285.33
2018-06-09T00:07:07.330Z,99283.63
2018-06-09T00:08:15.115Z,99283.30
2018-06-09T00:08:46.345Z,99285.59
2018-06-09T00:09:17.533Z,99284.39
2018-06-09T00:09:48.704Z,99285.72
2018-06-09T00:10:19.872Z,99291.49
2018-06-09T00:10:51.048Z,99288.84
2018-06-09T00:11:22.225Z,99288.61
2018-06-09T00:11:53.408Z,99289.08
2018-06-09T00:12:24.589Z,99285.95
2018-06-09T00:12:55.773Z,99285.33
2018-06-09T00:13:27.033Z,99287.52
2018-06-09T00:13:58.277Z,99285.95
2018-06-09T00:14:29.628Z,99290.41
2018-06-09T00:15:00.804Z,99282.93
2018-06-09T00:15:32.037Z,99283.63
2018-06-09T00:16:03.301Z,99282.67
2018-06-09T00:16:34.492Z,99285.70
2018-06-09T00:17:05.677Z,99287.03
2018-06-09T00:17:36.939Z,99278.23
2018-06-09T00:18:08.163Z,99286.66
2018-06-09T00:18:39.404Z,99282.30
2018-06-09T00:19:10.580Z,99283.52
2018-06-09T00:19:41.759Z,99277.47
2018-06-09T00:20:12.972Z,99283.77
2018-06-09T00:20:44.238Z,99286.77
2018-06-09T00:21:15.472Z,99286.77
2018-06-09T00:21:46.703Z,99280.75
2018-06-09T00:22:17.879Z,99286.19
2018-06-09T00:22:49.052Z,99283.16
2018-06-09T00:23:20.322Z,99288.58
2018-06-09T00:23:51.557Z,99281.08
2018-06-09T00:24:22.926Z,99287.13
2018-06-09T00:24:54.113Z,99287.37
2018-06-09T00:25:25.289Z,99280.27
2018-06-09T00:25:56.501Z,99277.95
2018-06-09T00:26:27.834Z,99279.03
2018-06-09T00:26:59.080Z,99277.59
2018-06-09T00:27:30.366Z,99278.80
2018-06-09T00:28:01.557Z,99277.70
2018-06-09T00:28:32.736Z,99274.09
2018-06-09T00:29:03.957Z,99271.80
2018-06-09T00:29:35.140Z,99276.75
2018-06-09T00:30:06.371Z,99270.23
2018-06-09T00:30:37.604Z,99271.69
2018-06-09T00:31:08.857Z,99266.01
2018-06-09T00:31:40.044Z,99262.16
2018-06-09T00:32:11.225Z,99260.45
2018-06-09T00:32:42.523Z,99269.51
2018-06-09T00:33:13.704Z,99263.81
2018-06-09T00:33:44.917Z,99265.50
2018-06-09T00:34:16.141Z,99263.34
2018-06-09T00:34:47.384Z,99268.53
2018-06-09T00:35:18.572Z,99267.20
2018-06-09T00:35:49.809Z,99265.88
2018-06-09T00:36:20.976Z,99261.89
2018-06-09T00:36:52.259Z,99262.23
2018-06-09T00:37:23.445Z,99267.08
2018-06-09T00:37:54.819Z,99267.78
2018-06-09T00:38:26.086Z,99272.14
2018-06-09T00:38:57.321Z,99268.89
2018-06-09T00:39:28.500Z,99268.40
2018-06-09T00:39:59.756Z,99265.98
2018-06-09T00:40:30.934Z,99258.39
2018-06-09T00:41:02.125Z,99261.78
2018-06-09T00:41:33.463Z,99257.80
2018-06-09T00:42:04.654Z,99253.19
2018-06-09T00:42:35.872Z,99255.02
2018-06-09T00:43:07.090Z,99251.16
2018-06-09T00:43:38.264Z,99245.48
2018-06-09T00:44:09.430Z,99255.52
2018-06-09T00:44:40.605Z,99253.08
2018-06-09T00:45:11.772Z,99253.70
2018-06-09T00:45:43.050Z,99256.45
2018-06-09T00:46:14.232Z,99252.97
2018-06-09T00:46:45.437Z,99254.42
2018-06-09T00:47:16.608Z,99255.84
2018-06-09T00:47:47.780Z,99258.16
2018-06-09T00:48:19.061Z,99256.83
2018-06-09T00:48:50.247Z,99258.49
2018-06-09T00:49:21.484Z,99255.50
2018-06-09T00:49:52.768Z,99255.59
2018-06-09T00:50:23.961Z,99256.46
2018-06-09T00:50:56.042Z,99253.09
2018-06-09T00:51:27.274Z,99258.41
2018-06-09T00:51:59.067Z,99252.61
2018-06-09T00:52:30.322Z,99247.64
2018-06-09T00:53:01.497Z,99245.83
2018-06-09T00:53:32.725Z,99247.86
2018-06-09T00:54:03.916Z,99248.34
2018-06-09T00:54:35.145Z,99242.70
2018-06-09T00:55:06.317Z,99248.02
2018-06-09T00:55:37.874Z,99242.92
2018-06-09T00:56:09.098Z,99237.98
2018-06-09T00:56:40.319Z,99240.27
2018-06-09T00:57:11.516Z,99234.59
2018-06-09T00:57:42.751Z,99234.97
2018-06-09T00:58:14.045Z,99239.66
2018-06-09T00:58:46.107Z,99231.27
2018-06-09T00:59:17.288Z,99238.53
2018-06-09T00:59:48.460Z,99241.27
2018-06-09T01:00:19.645Z,99226.93
2018-06-09T01:00:50.864Z,99232.20
2018-06-09T01:01:22.041Z,99227.65
2018-06-09T01:01:53.220Z,99231.02
2018-06-09T01:02:24.408Z,99238.48
2018-06-09T01:02:55.633Z,99234.13
2018-06-09T01:03:26.857Z,99235.33
2018-06-09T01:03:58.089Z,99236.66
2018-06-09T01:04:29.501Z,99232.55
2018-06-09T01:05:00.684Z,99235.45
2018-06-09T01:05:31.917Z,99234.74
2018-06-09T01:06:03.162Z,99234.98
2018-06-09T01:06:34.336Z,99231.72
2018-06-09T01:07:05.510Z,99224.84
2018-06-09T01:07:36.726Z,99231.26
2018-06-09T01:08:07.909Z,99228.48
2018-06-09T01:08:39.129Z,99234.41
2018-06-09T01:09:10.369Z,99233.91
2018-06-09T01:09:41.601Z,99232.23
2018-06-09T01:10:12.825Z,99222.95
2018-06-09T01:10:44.181Z,99220.88
2018-06-09T01:11:15.386Z,99225.58
2018-06-09T01:11:46.564Z,99226.91
2018-06-09T01:12:17.742Z,99225.58
2018-06-09T01:12:48.974Z,99222.59
2018-06-09T01:13:20.200Z,99224.63
2018-06-09T01:13:51.430Z,99224.84
2018-06-09T01:14:22.896Z,99220.48
2018-06-09T01:14:54.084Z,99220.73
2018-06-09T01:15:25.253Z,99224.72
2018-06-09T01:15:56.472Z,99222.81
2018-06-09T01:16:27.692Z,99220.86
2018-06-09T01:16:58.913Z,99223.73
2018-06-09T01:17:30.194Z,99221.79
2018-06-09T01:18:01.384Z,99219.13
2018-06-09T01:18:32.580Z,99223.86
2018-06-09T01:19:03.805Z,99214.08
2018-06-09T01:19:34.989Z,99224.35
2018-06-09T01:20:06.808Z,99223.73
2018-06-09T01:20:38.028Z,99222.28
2018-06-09T01:21:09.276Z,99224.59
2018-06-09T01:21:40.460Z,99222.19
2018-06-09T01:22:11.686Z,99221.70
2018-06-09T01:22:42.869Z,99219.91
2018-06-09T01:23:14.294Z,99219.66
2018-06-09T01:23:45.500Z,99218.58
2018-06-09T01:24:17.721Z,99220.15
2018-06-09T01:24:48.899Z,99215.20
2018-06-09T01:25:20.144Z,99217.27
2018-06-09T01:25:51.459Z,99223.91
2018-06-09T01:26:22.632Z,99217.52
2018-06-09T01:26:53.800Z,99217.98
2018-06-09T01:27:24.970Z,99212.69
2018-06-09T01:27:56.243Z,99213.14
2018-06-09T01:28:28.809Z,99211.58
2018-06-09T01:29:00.044Z,99215.80
2018-06-09T01:29:31.224Z,99209.64
2018-06-09T01:30:02.450Z,99212.13
2018-06-09T01:30:33.648Z,99214.78
2018-06-09T01:31:04.825Z,99205.88
2018-06-09T01:31:35.993Z,99209.36
2018-06-09T01:32:07.212Z,99210.10
2018-06-09T01:32:38.404Z,99212.38
2018-06-09T01:33:09.668Z,99214.78
2018-06-09T01:33:40.912Z,99216.85
2018-06-09T01:34:12.197Z,99212.88
2018-06-09T01:34:43.372Z,99215.16
2018-06-09T01:35:14.590Z,99213.00
2018-06-09T01:35:45.829Z,99213.45
2018-06-09T01:36:17.062Z,99213.21
2018-06-09T01:36:48.264Z,99214.45
2018-06-09T01:37:19.436Z,99219.38
2018-06-09T01:37:50.673Z,99218.27
2018-06-09T01:38:21.860Z,99213.70
2018-06-09T01:38:53.040Z,99213.83
2018-06-09T01:39:24.309Z,99214.91
2018-06-09T01:39:55.484Z,99216.11
2018-06-09T01:40:26.709Z,99215.13
2018-06-09T01:40:57.900Z,99215.86
2018-06-09T01:41:29.126Z,99216.82
2018-06-09T01:42:00.352Z,99220.06
2018-06-09T01:42:31.532Z,99211.77
2018-06-09T01:43:02.740Z,99215.13
2018-06-09T01:43:33.926Z,99214.66
2018-06-09T01:44:05.100Z,99215.98
2018-06-09T01:44:36.285Z,99210.78
2018-06-09T01:45:07.516Z,99207.63
2018-06-09T01:45:38.696Z,99210.78
2018-06-09T01:46:09.881Z,99206.46
2018-06-09T01:46:41.107Z,99202.23
2018-06-09T01:47:12.502Z,99202.11
2018-06-09T01:47:43.737Z,99203.65
2018-06-09T01:48:14.921Z,99203.98
2018-06-09T01:48:46.132Z,99203.61
2018-06-09T01:49:17.311Z,99208.91
2018-06-09T01:49:48.487Z,99213.77
2018-06-09T01:50:19.724Z,99216.29
2018-06-09T01:50:50.909Z,99213.52
2018-06-09T01:51:22.189Z,99213.02
2018-06-09T01:51:53.373Z,99218.11
2018-06-09T01:52:25.137Z,99220.64
2018-06-09T01:52:56.392Z,99213.05
2018-06-09T01:53:27.580Z,99215.58
2018-06-09T01:53:58.799Z,99216.82
2018-06-09T01:54:30.053Z,99211.02
2018-06-09T01:55:01.229Z,99217.07
2018-06-09T01:55:32.414Z,99216.70
2018-06-09T01:56:03.589Z,99210.66
2018-06-09T01:56:34.873Z,99209.08
2018-06-09T01:57:06.105Z,99204.27
2018-06-09T01:57:37.295Z,99209.33
2018-06-09T01:58:08.473Z,99208.58
2018-06-09T01:58:39.688Z,99206.64
2018-06-09T01:59:10.866Z,99207.59
2018-06-09T01:59:42.056Z,99211.07
2018-06-09T02:00:13.233Z,99200.84
2018-06-09T02:00:44.464Z,99206.60
2018-06-09T02:01:15.700Z,99204.69
2018-06-09T02:01:46.896Z,99209.37
2018-06-09T02:02:18.089Z,99205.14
2018-06-09T02:02:49.313Z,99207.34
2018-06-09T02:03:20.535Z,99206.02
2018-06-09T02:03:51.749Z,99205.14
2018-06-09T02:04:22.920Z,99207.67
2018-06-09T02:04:54.092Z,99204.89
2018-06-09T02:05:25.326Z,99204.06
2018-06-09T02:05:56.565Z,99206.09
2018-06-09T02:06:27.744Z,99209.20
2018-06-09T02:06:58.912Z,99205.19
2018-06-09T02:07:30.097Z,99202.91
2018-06-09T02:08:01.281Z,99208.92
2018-06-09T02:08:32.488Z,99203.03
2018-06-09T02:09:03.672Z,99204.27
2018-06-09T02:09:34.888Z,99205.97
2018-06-09T02:10:06.112Z,99213.80
2018-06-09T02:10:37.392Z,99208.25
2018-06-09T02:11:08.598Z,99212.31
2018-06-09T02:11:39.779Z,99207.79
2018-06-09T02:12:11.013Z,99206.47
2018-06-09T02:12:42.197Z,99210.48
2018-06-09T02:13:13.404Z,99210.95
2018-06-09T02:13:44.578Z,99206.52
2018-06-09T02:14:15.763Z,99206.02
2018-06-09T02:14:46.994Z,99204.58
2018-06-09T02:15:18.219Z,99207.97
2018-06-09T02:15:51.252Z,99208.75
2018-06-09T02:16:22.520Z,99208.75
2018-06-09T02:16:55.232Z,99211.94
2018-06-09T02:17:26.416Z,99206.02
2018-06-09T02:17:57.607Z,99205.14
2018-06-09T02:18:28.865Z,99207.71
2018-06-09T02:19:00.116Z,99208.66
2018-06-09T02:19:31.350Z,99207.92
2018-06-09T02:20:02.589Z,99205.39
2018-06-09T02:20:33.827Z,99212.02
2018-06-09T02:21:05.013Z,99210.44
2018-06-09T02:21:36.193Z,99212.83
2018-06-09T02:22:07.385Z,99210.89
2018-06-09T02:22:38.617Z,99215.86
2018-06-09T02:23:09.815Z,99217.44
2018-06-09T02:23:41.056Z,99214.78
2018-06-09T02:24:12.233Z,99216.94
2018-06-09T02:24:43.471Z,99221.55
2018-06-09T02:25:14.666Z,99227.59
2018-06-09T02:25:45.938Z,99223.00
2018-06-09T02:26:17.120Z,99223.37
2018-06-09T02:26:48.352Z,99222.42
2018-06-09T02:27:19.533Z,99221.09
2018-06-09T02:27:50.760Z,99225.27
2018-06-09T02:28:21.943Z,99219.27
2018-06-09T02:28:53.113Z,99218.89
2018-06-09T02:29:24.320Z,99219.97
2018-06-09T02:29:55.536Z,99214.66
2018-06-09T02:30:26.766Z,99215.49
2018-06-09T02:30:57.962Z,99214.17
2018-06-09T02:31:29.142Z,99210.89
2018-06-09T02:32:00.364Z,99211.39
2018-06-09T02:32:31.544Z,99209.93
2018-06-09T02:33:02.712Z,99211.84
2018-06-09T02:33:33.895Z,99210.95
2018-06-09T02:34:05.125Z,99208.55
2018-06-09T02:34:36.373Z,99208.87
2018-06-09T02:35:07.564Z,99209.57
2018-06-09T02:35:38.753Z,99214.29
2018-06-09T02:36:09.935Z,99208.99
2018-06-09T02:36:41.168Z,99214.87
2018-06-09T02:37:12.394Z,99212.59
2018-06-09T02:37:43.568Z,99218.09
2018-06-09T02:38:14.761Z,99217.28
2018-06-09T02:38:45.938Z,99219.66
2018-06-09T02:39:17.126Z,99217.47
2018-06-09T02:39:48.343Z,99226.48
2018-06-09T02:40:19.565Z,99224.20
2018-06-09T02:40:50.762Z,99220.98
2018-06-09T02:41:21.952Z,99224.95
2018-06-09T02:41:53.131Z,99224.63
2018-06-09T02:42:24.340Z,99226.21
2018-06-09T02:42:55.521Z,99228.25
2018-06-09T02:43:26.703Z,99222.95
2018-06-09T02:43:57.933Z,99224.53
2018-06-09T02:44:29.140Z,99222.13
2018-06-09T02:45:00.357Z,99219.40
2018-06-09T02:45:31.598Z,99218.33
2018-06-09T02:46:02.783Z,99217.84
2018-06-09T02:46:33.980Z,99225.29
2018-06-09T02:47:05.725Z,99218.67
2018-06-09T02:47:36.918Z,99219.66
2018-06-09T02:48:08.112Z,99223.25
2018-06-09T02:48:39.292Z,99228.55
2018-06-09T02:49:10.640Z,99224.70
2018-06-09T02:49:41.826Z,99217.95
2018-06-09T02:50:13.061Z,99222.30
2018-06-09T02:50:44.297Z,99216.63
2018-06-09T02:51:15.529Z,99211.70
2018-06-09T02:51:46.761Z,99214.98
2018-06-09T02:52:17.961Z,99218.46
2018-06-09T02:52:49.152Z,99218.22
2018-06-09T02:53:20.390Z,99216.56
2018-06-09T02:53:51.579Z,99211.02
2018-06-09T02:54:22.796Z,99212.13
2018-06-09T02:54:53.973Z,99210.69
2018-06-09T02:55:25.185Z,99214.66
2018-06-09T02:55:56.361Z,99210.94
2018-06-09T02:56:27.536Z,99216.61
2018-06-09T02:56:58.722Z,99213.96
2018-06-09T02:57:29.990Z,99215.66
2018-06-09T02:58:01.172Z,99213.72
2018-06-09T02:58:32.421Z,99210.95
2018-06-09T02:59:03.661Z,99211.57
2018-06-09T02:59:34.850Z,99216.87
2018-06-09T03:00:06.036Z,99212.77
2018-06-09T03:00:37.264Z,99214.84
2018-06-09T03:01:08.445Z,99217.48
2018-06-09T03:01:39.669Z,99214.67
2018-06-09T03:02:10.876Z,99211.19
2018-06-09T03:02:42.105Z,99213.47
2018-06-09T03:03:13.341Z,99213.96
2018-06-09T03:03:44.582Z,99213.45
2018-06-09T03:04:15.771Z,99204.39
2018-06-09T03:04:47.049Z,99211.52
2018-06-09T03:05:18.298Z,99204.77
2018-06-09T03:05:49.486Z,99212.64
2018-06-09T03:06:21.916Z,99206.02
2018-06-09T03:06:53.168Z,99208.30
2018-06-09T03:07:24.392Z,99207.97
2018-06-09T03:07:55.584Z,99211.77
2018-06-09T03:08:26.819Z,99210.20
2018-06-09T03:08:58.070Z,99209.25
2018-06-09T03:09:29.275Z,99212.48
2018-06-09T03:10:00.464Z,99216.24
2018-06-09T03:10:31.697Z,99210.32
2018-06-09T03:11:02.968Z,99214.76
2018-06-09T03:11:34.152Z,99221.30
2018-06-09T03:12:05.353Z,99218.52
2018-06-09T03:12:36.541Z,99219.73
2018-06-09T03:13:07.754Z,99219.84
2018-06-09T03:13:38.933Z,99226.11
2018-06-09T03:14:10.120Z,99229.83
2018-06-09T03:14:41.300Z,99222.25
2018-06-09T03:15:12.581Z,99221.47
2018-06-09T03:15:43.773Z,99225.57
2018-06-09T03:16:14.961Z,99222.05
2018-06-09T03:16:46.136Z,99219.02
2018-06-09T03:17:17.410Z,99225.53
2018-06-09T03:17:48.605Z,99227.59
2018-06-09T03:18:20.875Z,99226.97
2018-06-09T03:18:52.065Z,99232.61
2018-06-09T03:19:23.285Z,99228.75
2018-06-09T03:19:54.785Z,99225.27
2018-06-09T03:20:26.006Z,99224.66
2018-06-09T03:20:57.233Z,99229.05
2018-06-09T03:21:28.445Z,99222.05
2018-06-09T03:21:59.672Z,99221.34
2018-06-09T03:22:30.844Z,99216.41
2018-06-09T03:23:02.268Z,99220.18
2018-06-09T03:23:33.501Z,99219.69
2018-06-09T03:24:04.684Z,99212.09
2018-06-09T03:24:35.874Z,99216.54
2018-06-09T03:25:07.125Z,99216.33
2018-06-09T03:25:38.336Z,99216.54
2018-06-09T03:26:09.512Z,99219.72
2018-06-09T03:26:40.691Z,99215.37
2018-06-09T03:27:11.916Z,99214.05
2018-06-09T03:27:43.141Z,99212.97
2018-06-09T03:28:14.386Z,99212.38
2018-06-09T03:28:45.596Z,99210.80
2018-06-09T03:29:16.799Z,99218.77
2018-06-09T03:29:47.992Z,99212.88
2018-06-09T03:30:19.204Z,99211.42
2018-06-09T03:30:50.422Z,99208.55
2018-06-09T03:31:21.609Z,99203.98
2018-06-09T03:31:52.797Z,99208.55
2018-06-09T03:32:23.983Z,99208.55
2018-06-09T03:32:55.257Z,99209.41
2018-06-09T03:33:26.489Z,99206.14
2018-06-09T03:33:57.668Z,99206.73
2018-06-09T03:34:28.846Z,99206.95
2018-06-09T03:35:00.036Z,99205.63
2018-06-09T03:35:31.222Z,99202.85
2018-06-09T03:36:02.449Z,99200.72
2018-06-09T03:36:33.620Z,99197.91
2018-06-09T03:37:04.800Z,99199.24
2018-06-09T03:37:36.009Z,99195.97
2018-06-09T03:38:07.183Z,99201.73
2018-06-09T03:38:38.363Z,99198.63
2018-06-09T03:39:09.560Z,99195.27
2018-06-09T03:39:40.795Z,99200.94
2018-06-09T03:40:11.985Z,99200.72
2018-06-09T03:40:43.470Z,99196.98
2018-06-09T03:41:14.649Z,99191.67
2018-06-09T03:41:45.830Z,99201.36
2018-06-09T03:42:17.056Z,99198.95
2018-06-09T03:42:48.270Z,99196.41
2018-06-09T03:43:19.520Z,99199.42
2018-06-09T03:43:50.670Z,99197.51
2018-06-09T03:44:21.892Z,99202.82
2018-06-09T03:44:53.075Z,99198.72
2018-06-09T03:45:24.252Z,99202.68
2018-06-09T03:45:55.467Z,99203.05
2018-06-09T03:46:26.701Z,99209.55
2018-06-09T03:46:57.887Z,99205.45
2018-06-09T03:47:29.118Z,99207.38
2018-06-09T03:48:00.351Z,99202.17
2018-06-09T03:48:31.521Z,99213.03
2018-06-09T03:49:02.710Z,99207.97
2018-06-09T03:49:33.952Z,99209.17
2018-06-09T03:50:05.160Z,99204.36
2018-06-09T03:50:36.383Z,99203.40
2018-06-09T03:51:07.654Z,99203.86
2018-06-09T03:51:38.842Z,99194.20
2018-06-09T03:52:10.020Z,99201.80
2018-06-09T03:52:41.251Z,99195.51
2018-06-09T03:53:12.541Z,99200.94
2018-06-09T03:53:43.729Z,99170.02
2018-06-09T03:54:14.956Z,99197.08
2018-06-09T03:54:46.140Z,99197.58
2018-06-09T03:55:17.377Z,99198.56
2018-06-09T03:55:48.562Z,99203.48
2018-06-09T03:56:19.768Z,99201.82
2018-06-09T03:56:50.992Z,99193.63
2018-06-09T03:57:22.188Z,99194.48
2018-06-09T03:57:53.372Z,99193.80
2018-06-09T03:58:24.641Z,99195.73
2018-06-09T03:58:55.922Z,99198.64
2018-06-09T03:59:27.165Z,99198.53
2018-06-09T03:59:58.366Z,99202.27
2018-06-09T04:00:29.533Z,99196.95
2018-06-09T04:01:00.716Z,99200.34
2018-06-09T04:01:31.900Z,99205.16
2018-06-09T04:02:03.065Z,99204.57
2018-06-09T04:02:34.243Z,99200.45
2018-06-09T04:03:05.420Z,99200.59
2018-06-09T04:03:36.645Z,99199.73
2018-06-09T04:04:07.865Z,99205.28
2018-06-09T04:04:39.059Z,99201.53
2018-06-09T04:05:10.232Z,99206.25
2018-06-09T04:05:41.413Z,99201.41
2018-06-09T04:06:12.593Z,99205.14
2018-06-09T04:06:43.777Z,99200.56
2018-06-09T04:07:14.945Z,99203.08
2018-06-09T04:07:46.127Z,99205.73
2018-06-09T04:08:17.304Z,99201.89
2018-06-09T04:08:48.548Z,99205.52
2018-06-09T04:09:19.773Z,99198.97
2018-06-09T04:09:50.954Z,99202.73
2018-06-09T04:10:22.130Z,99208.15
2018-06-09T04:10:53.304Z,99202.83
2018-06-09T04:11:24.472Z,99205.46
2018-06-09T04:11:55.649Z,99198.08
2018-06-09T04:12:26.829Z,99203.36
2018-06-09T04:12:58.061Z,99204.32
2018-06-09T04:13:29.294Z,99198.23
2018-06-09T04:14:00.567Z,99203.41
2018-06-09T04:14:31.841Z,99199.18
2018-06-09T04:15:03.028Z,99199.55
2018-06-09T04:15:34.209Z,99201.94
2018-06-09T04:16:05.420Z,99203.02
2018-06-09T04:16:36.600Z,99193.46
2018-06-09T04:17:07.780Z,99203.69
2018-06-09T04:17:38.965Z,99195.65
2018-06-09T04:18:10.201Z,99199.13
2018-06-09T04:18:41.385Z,99203.33
2018-06-09T04:19:12.553Z,99200.14
2018-06-09T04:19:43.767Z,99200.21
2018-06-09T04:20:14.967Z,99198.76
2018-06-09T04:20:46.195Z,99199.69
2018-06-09T04:21:17.409Z,99201.76
2018-06-09T04:21:48.636Z,99201.39
2018-06-09T04:22:19.800Z,99197.68
2018-06-09T04:22:50.976Z,99196.08
2018-06-09T04:23:22.152Z,99197.49
2018-06-09T04:23:53.376Z,99197.19
2018-06-09T04:24:24.561Z,99197.20
2018-06-09T04:24:55.729Z,99196.45
2018-06-09T04:25:26.953Z,99193.48
2018-06-09T04:25:58.207Z,99197.68
2018-06-09T04:26:29.388Z,99196.55
2018-06-09T04:27:00.658Z,99196.02
2018-06-09T04:27:31.840Z,99191.02
2018-06-09T04:28:03.058Z,99195.67
2018-06-09T04:28:34.303Z,99193.66
2018-06-09T04:29:05.488Z,99187.69
2018-06-09T04:29:36.657Z,99190.20
2018-06-09T04:30:07.836Z,99188.48
2018-06-09T04:30:39.053Z,99187.13
2018-06-09T04:31:10.235Z,99186.63
2018-06-09T04:31:41.414Z,99185.46
2018-06-09T04:32:12.621Z,99187.13
2018-06-09T04:32:43.846Z,99186.00
2018-06-09T04:33:15.077Z,99186.72
2018-06-09T04:33:46.313Z,99183.89
2018-06-09T04:34:17.522Z,99182.38
2018-06-09T04:34:48.696Z,99186.84
2018-06-09T04:35:19.870Z,99180.58
2018-06-09T04:35:51.090Z,99187.94
2018-06-09T04:36:22.353Z,99181.34
2018-06-09T04:36:53.536Z,99186.71
2018-06-09T04:37:24.712Z,99179.61
2018-06-09T04:37:55.958Z,99181.95
2018-06-09T04:38:27.187Z,99178.53
2018-06-09T04:38:58.445Z,99182.31
2018-06-09T04:39:29.638Z,99184.41
2018-06-09T04:40:00.890Z,99181.92
2018-06-09T04:40:32.175Z,99177.99
2018-06-09T04:41:03.355Z,99183.33
2018-06-09T04:41:34.532Z,99177.31
2018-06-09T04:42:05.764Z,99183.86
2018-06-09T04:42:36.948Z,99177.91
2018-06-09T04:43:08.132Z,99178.53
2018-06-09T04:43:39.304Z,99181.79
2018-06-09T04:44:10.480Z,99180.03
2018-06-09T04:44:41.661Z,99173.81
2018-06-09T04:45:12.842Z,99176.38
2018-06-09T04:45:44.049Z,99176.03
2018-06-09T04:46:15.236Z,99189.29
2018-06-09T04:46:46.461Z,99184.84
2018-06-09T04:47:17.633Z,99182.47
2018-06-09T04:47:48.853Z,99181.49
2018-06-09T04:48:20.093Z,99176.16
2018-06-09T04:48:51.351Z,99186.68
2018-06-09T04:49:22.585Z,99185.49
2018-06-09T04:49:53.841Z,99185.49
2018-06-09T04:50:25.020Z,99187.04
2018-06-09T04:50:56.201Z,99185.98
2018-06-09T04:51:27.418Z,99190.55
2018-06-09T04:51:58.632Z,99188.61
2018-06-09T04:52:29.819Z,99186.63
2018-06-09T04:53:01.004Z,99194.98
2018-06-09T04:53:32.181Z,99190.70
2018-06-09T04:54:03.483Z,99185.92
2018-06-09T04:54:34.684Z,99185.92
2018-06-09T04:55:05.856Z,99191.04
2018-06-09T04:55:37.041Z,99189.98
2018-06-09T04:56:08.268Z,99190.15
2018-06-09T04:56:39.478Z,99187.34
2018-06-09T04:57:10.648Z,99192.03
2018-06-09T04:57:41.868Z,99190.39
2018-06-09T04:58:13.076Z,99189.58
2018-06-09T04:58:44.302Z,99195.09
2018-06-09T04:59:15.505Z,99194.02
2018-06-09T04:59:46.720Z,99192.97
2018-06-09T05:00:17.960Z,99200.44
2018-06-09T05:00:49.720Z,99195.13
2018-06-09T05:01:20.959Z,99199.46
2018-06-09T05:01:52.189Z,99192.52
2018-06-09T05:02:23.481Z,99196.20
2018-06-09T05:02:54.696Z,99196.07
2018-06-09T05:03:25.885Z,99198.38
2018-06-09T05:03:57.120Z,99197.62
2018-06-09T05:04:28.328Z,99201.47
2018-06-09T05:04:59.505Z,99190.92
2018-06-09T05:05:30.781Z,99197.84
2018-06-09T05:06:01.987Z,99199.84
2018-06-09T05:06:33.250Z,99197.76
2018-06-09T05:07:04.485Z,99203.02
2018-06-09T05:07:35.709Z,99199.50
2018-06-09T05:08:06.984Z,99198.83
2018-06-09T05:08:38.177Z,99206.72
2018-06-09T05:09:09.448Z,99202.07
2018-06-09T05:09:40.676Z,99202.63
2018-06-09T05:10:11.848Z,99205.71
2018-06-09T05:10:43.033Z,99203.03
2018-06-09T05:11:14.217Z,99206.86
2018-06-09T05:11:45.398Z,99209.30
2018-06-09T05:12:16.637Z,99210.31
2018-06-09T05:12:47.880Z,99210.52
2018-06-09T05:13:19.072Z,99206.18
2018-06-09T05:13:50.240Z,99210.48
2018-06-09T05:14:21.498Z,99210.12
2018-06-09T05:14:52.786Z,99212.45
2018-06-09T05:15:23.966Z,99210.08
2018-06-09T05:15:55.147Z,99210.14
2018-06-09T05:16:26.378Z,99210.06
2018-06-09T05:16:57.623Z,99212.59
2018-06-09T05:17:28.848Z,99208.78
2018-06-09T05:18:00.031Z,99213.07
2018-06-09T05:18:31.214Z,99208.98
2018-06-09T05:19:02.388Z,99208.98
2018-06-09T05:19:33.600Z,99207.09
2018-06-09T05:20:04.781Z,99208.70
2018-06-09T05:20:36.005Z,99210.53
2018-06-09T05:21:07.183Z,99210.77
2018-06-09T05:21:38.356Z,99210.89
2018-06-09T05:22:09.526Z,99206.94
2018-06-09T05:22:40.702Z,99209.81
2018-06-09T05:23:11.928Z,99216.35
2018-06-09T05:23:43.114Z,99215.72
2018-06-09T05:24:14.325Z,99209.93
2018-06-09T05:24:45.569Z,99212.11
2018-06-09T05:25:16.762Z,99212.40
2018-06-09T05:25:47.985Z,99215.33
2018-06-09T05:26:19.224Z,99216.30
2018-06-09T05:26:50.381Z,99213.56
2018-06-09T05:27:21.609Z,99213.75
2018-06-09T05:27:52.874Z,99217.03
2018-06-09T05:28:24.135Z,99219.95
2018-06-09T05:28:55.315Z,99218.63
2018-06-09T05:29:26.556Z,99224.24
2018-06-09T05:29:57.726Z,99223.02
2018-06-09T05:30:28.955Z,99223.16
2018-06-09T05:31:00.184Z,99222.66
2018-06-09T05:31:31.428Z,99221.22
2018-06-09T05:32:02.670Z,99227.88
2018-06-09T05:32:33.849Z,99217.58
2018-06-09T05:33:05.068Z,99223.16
2018-06-09T05:33:36.297Z,99219.45
2018-06-09T05:34:07.484Z,99223.78
2018-06-09T05:34:38.758Z,99209.83
2018-06-09T05:35:09.944Z,99215.56
2018-06-09T05:35:41.131Z,99217.00
2018-06-09T05:36:12.305Z,99214.20
2018-06-09T05:36:43.534Z,99221.58
2018-06-09T05:37:14.716Z,99215.64
2018-06-09T05:37:45.944Z,99207.71
2018-06-09T05:38:17.176Z,99203.45
2018-06-09T05:38:48.373Z,99208.64
2018-06-09T05:39:19.614Z,99207.45
2018-06-09T05:39:50.889Z,99211.53
2018-06-09T05:40:22.072Z,99204.56
2018-06-09T05:40:53.253Z,99207.80
2018-06-09T05:41:24.430Z,99211.88
2018-06-09T05:41:55.604Z,99216.66
2018-06-09T05:42:26.780Z,99214.84
2018-06-09T05:42:58.006Z,99217.53
2018-06-09T05:43:29.257Z,99213.75
2018-06-09T05:44:00.444Z,99212.91
2018-06-09T05:44:31.616Z,99215.05
2018-06-09T05:45:02.860Z,99215.75
2018-06-09T05:45:34.028Z,99214.94
2018-06-09T05:46:05.201Z,99216.59
2018-06-09T05:46:36.386Z,99216.23
2018-06-09T05:47:07.568Z,99223.44
2018-06-09T05:47:38.797Z,99217.83
2018-06-09T05:48:09.989Z,99225.81
2018-06-09T05:48:41.176Z,99221.41
2018-06-09T05:49:12.415Z,99224.13
2018-06-09T05:49:43.594Z,99223.34
2018-06-09T05:50:14.870Z,99217.67
2018-06-09T05:50:46.065Z,99220.11
2018-06-09T05:51:17.236Z,99221.80
2018-06-09T05:51:48.414Z,99216.77
2018-06-09T05:52:19.641Z,99220.73
2018-06-09T05:52:50.824Z,99223.06
2018-06-09T05:53:22.015Z,99221.72
2018-06-09T05:53:53.249Z,99224.04
2018-06-09T05:54:24.431Z,99223.73
2018-06-09T05:54:55.610Z,99220.28
2018-06-09T05:55:26.833Z,99217.48
2018-06-09T05:55:58.067Z,99220.86
2018-06-09T05:56:29.344Z,99215.95
2018-06-09T05:57:00.532Z,99223.48
2018-06-09T05:57:31.714Z,99222.20
2018-06-09T05:58:02.934Z,99224.56
2018-06-09T05:58:34.125Z,99219.11
2018-06-09T05:59:05.300Z,99215.83
2018-06-09T05:59:36.480Z,99221.97
2018-06-09T06:00:07.660Z,99215.46
2018-06-09T06:00:38.929Z,99213.69
2018-06-09T06:01:10.116Z,99215.55
2018-06-09T06:01:41.337Z,99214.92
2018-06-09T06:02:12.524Z,99208.43
2018-06-09T06:02:43.767Z,99205.28
2018-06-09T06:03:15.001Z,99204.34
2018-06-09T06:03:46.222Z,99211.70
2018-06-09T06:04:17.411Z,99201.11
2018-06-09T06:04:48.647Z,99207.19
2018-06-09T06:05:19.884Z,99198.98
2018-06-09T06:05:51.071Z,99203.70
2018-06-09T06:06:22.306Z,99212.38
2018-06-09T06:06:53.550Z,99204.30
2018-06-09T06:07:24.832Z,99199.00